createdAt,value
2023-05-25T00:00:18.995Z,5.50
2023-05-25T00:02:49.283Z,5.57
2023-05-25T00:07:45.374Z,6.45
2023-05-25T00:10:12.770Z,6.28
2023-05-25T00:12:40.433Z,6.35
2023-05-25T00:15:07.713Z,6.07
2023-05-25T00:17:37.271Z,5.88
2023-05-25T00:20:07.480Z,5.60
2023-05-25T00:22:38.362Z,5.45
2023-05-25T00:25:06.551Z,6.78
2023-05-25T00:27:33.523Z,6.10
2023-05-25T00:30:00.487Z,5.75
2023-05-25T00:32:27.730Z,6.70
2023-05-25T00:34:55.399Z,6.35
2023-05-25T00:37:22.259Z,6.10
2023-05-25T00:39:49.849Z,5.93
2023-05-25T00:42:16.781Z,6.15
2023-05-25T00:44:44.008Z,6.80
2023-05-25T00:47:11.878Z,6.35
2023-05-25T00:49:38.986Z,6.90
2023-05-25T00:52:06.292Z,6.45
2023-05-25T00:54:35.215Z,7.05
2023-05-25T00:57:07.340Z,6.75
2023-05-25T00:59:51.892Z,7.80
2023-05-25T01:02:19.964Z,7.40
2023-05-25T01:04:53.888Z,6.97
2023-05-25T01:07:26.757Z,6.35
2023-05-25T01:10:02.417Z,7.75
2023-05-25T01:12:30.359Z,8.18
2023-05-25T01:14:58.006Z,7.22
2023-05-25T01:17:26.551Z,6.38
2023-05-25T01:20:08.915Z,7.03
2023-05-25T01:22:55.569Z,6.55
2023-05-25T01:25:27.692Z,7.03
2023-05-25T01:28:06.801Z,7.80
2023-05-25T01:30:37.914Z,6.50
2023-05-25T01:33:06.304Z,6.25
2023-05-25T01:35:36.643Z,6.90
2023-05-25T01:38:03.963Z,7.20
2023-05-25T01:40:30.843Z,7.53
2023-05-25T01:43:00.757Z,7.18
2023-05-25T01:45:28.250Z,6.55
2023-05-25T01:47:55.137Z,8.25
2023-05-25T01:50:29.783Z,7.55
2023-05-25T01:53:03.444Z,6.95
2023-05-25T01:55:34.774Z,6.80
2023-05-25T01:58:03.121Z,6.57
2023-05-25T02:00:34.154Z,7.68
2023-05-25T02:03:01.818Z,8.02
2023-05-25T02:05:28.773Z,7.20
2023-05-25T02:07:55.806Z,6.53
2023-05-25T02:10:22.661Z,7.05
2023-05-25T02:12:49.696Z,7.13
2023-05-25T02:15:18.001Z,8.30
2023-05-25T02:17:45.976Z,7.40
2023-05-25T02:20:13.485Z,7.82
2023-05-25T02:22:40.517Z,6.90
2023-05-25T02:25:09.077Z,8.10
2023-05-25T02:27:36.800Z,6.22
2023-05-25T02:30:04.142Z,6.75
2023-05-25T02:32:31.466Z,6.85
2023-05-25T02:34:58.494Z,7.65
2023-05-25T02:37:25.552Z,7.60
2023-05-25T02:39:52.433Z,8.18
2023-05-25T02:42:20.643Z,7.55
2023-05-25T02:44:48.765Z,7.78
2023-05-25T02:47:16.574Z,7.68
2023-05-25T02:49:43.825Z,8.60
2023-05-25T02:52:10.969Z,7.90
2023-05-25T02:54:38.052Z,7.88
2023-05-25T02:57:06.619Z,7.15
2023-05-25T02:59:33.560Z,7.50
2023-05-25T03:02:00.430Z,7.25
2023-05-25T03:04:28.545Z,7.68
2023-05-25T03:06:56.401Z,8.07
2023-05-25T03:09:23.226Z,7.78
2023-05-25T03:11:50.499Z,7.28
2023-05-25T03:14:20.406Z,7.68
2023-05-25T03:17:00.185Z,8.32
2023-05-25T03:19:27.735Z,7.75
2023-05-25T03:21:54.750Z,7.43
2023-05-25T03:24:21.604Z,7.13
2023-05-25T03:26:48.523Z,7.30
2023-05-25T03:29:16.616Z,7.32
2023-05-25T03:31:43.486Z,7.50
2023-05-25T03:34:10.658Z,6.93
2023-05-25T03:36:39.085Z,7.07
2023-05-25T03:39:07.224Z,6.90
2023-05-25T03:41:34.158Z,7.03
2023-05-25T03:44:01.014Z,7.07
2023-05-25T03:46:27.988Z,8.13
2023-05-25T03:48:57.419Z,7.32
2023-05-25T03:51:24.300Z,6.88
2023-05-25T03:53:51.364Z,6.70
2023-05-25T03:56:18.281Z,8.10
2023-05-25T03:58:45.129Z,6.97
2023-05-25T04:01:13.341Z,6.60
2023-05-25T04:03:40.717Z,6.88
2023-05-25T04:06:07.772Z,5.65
2023-05-25T04:08:34.954Z,6.85
2023-05-25T04:11:02.262Z,6.63
2023-05-25T04:13:29.150Z,6.30
2023-05-25T04:15:56.214Z,6.28
2023-05-25T04:18:27.634Z,6.68
2023-05-25T04:20:57.325Z,6.60
2023-05-25T04:23:24.642Z,6.43
2023-05-25T04:25:53.711Z,6.15
2023-05-25T04:28:20.779Z,6.57
2023-05-25T04:31:01.747Z,6.57
2023-05-25T04:33:38.611Z,6.30
2023-05-25T04:36:34.816Z,8.77
2023-05-25T04:39:05.816Z,7.38
2023-05-25T04:41:36.048Z,7.20
2023-05-25T04:44:09.808Z,7.90
2023-05-25T04:46:45.015Z,6.28
2023-05-25T04:49:21.511Z,6.38
2023-05-25T04:51:48.637Z,6.45
2023-05-25T04:54:15.894Z,6.53
2023-05-25T04:56:43.225Z,7.38
2023-05-25T04:59:10.363Z,7.18
2023-05-25T05:01:46.459Z,7.80
2023-05-25T05:04:16.731Z,7.10
2023-05-25T05:06:44.338Z,6.72
2023-05-25T05:09:17.599Z,6.55
2023-05-25T05:11:44.713Z,6.85
2023-05-25T05:14:13.800Z,7.38
2023-05-25T05:16:42.845Z,6.60
2023-05-25T05:19:10.034Z,7.03
2023-05-25T05:21:37.152Z,7.38
2023-05-25T05:24:06.330Z,6.78
2023-05-25T05:26:44.240Z,6.38
2023-05-25T05:29:20.342Z,6.70
2023-05-25T05:31:47.422Z,7.95
2023-05-25T05:34:14.430Z,7.68
2023-05-25T05:36:56.049Z,6.50
2023-05-25T05:39:24.883Z,6.30
2023-05-25T05:41:51.768Z,6.97
2023-05-25T05:44:26.835Z,9.15
2023-05-25T05:47:00.853Z,6.25
2023-05-25T05:49:29.428Z,6.07
2023-05-25T05:51:57.599Z,6.25
2023-05-25T05:54:24.673Z,6.78
2023-05-25T05:56:51.834Z,6.85
2023-05-25T05:59:18.801Z,7.25
2023-05-25T06:01:45.750Z,7.15
2023-05-25T06:04:13.528Z,6.25
2023-05-25T06:06:42.174Z,6.90
2023-05-25T06:09:09.498Z,6.30
2023-05-25T06:11:37.597Z,6.18
2023-05-25T06:14:04.724Z,5.75
2023-05-25T06:16:31.738Z,7.75
2023-05-25T06:18:58.653Z,6.47
2023-05-25T06:21:25.587Z,6.10
2023-05-25T06:23:52.682Z,6.07
2023-05-25T06:26:19.530Z,5.80
2023-05-25T06:28:47.741Z,6.03
2023-05-25T06:31:14.637Z,5.68
2023-05-25T06:33:41.626Z,6.20
2023-05-25T06:36:09.803Z,6.68
2023-05-25T06:38:37.015Z,5.93
2023-05-25T06:41:05.478Z,5.70
2023-05-25T06:43:32.959Z,5.57
2023-05-25T06:46:11.567Z,5.93
2023-05-25T06:48:39.369Z,6.53
2023-05-25T06:51:06.372Z,6.35
2023-05-25T06:53:33.300Z,5.97
2023-05-25T06:56:00.406Z,5.85
2023-05-25T06:58:27.429Z,5.65
2023-05-25T07:00:54.376Z,5.63
2023-05-25T07:03:21.953Z,6.43
2023-05-25T07:05:49.046Z,5.53
2023-05-25T07:08:16.231Z,6.30
2023-05-25T07:10:43.117Z,6.05
2023-05-25T07:13:11.279Z,5.90
2023-05-25T07:15:38.151Z,6.47
2023-05-25T07:18:05.130Z,5.90
2023-05-25T07:20:34.356Z,6.05
2023-05-25T07:23:01.354Z,5.75
2023-05-25T07:25:28.216Z,6.78
2023-05-25T07:27:55.295Z,5.70
2023-05-25T07:30:22.293Z,5.80
2023-05-25T07:32:49.180Z,5.25
2023-05-25T07:35:16.068Z,5.82
2023-05-25T07:37:42.947Z,6.13
2023-05-25T07:40:10.767Z,5.80
2023-05-25T07:42:37.695Z,5.68
2023-05-25T07:45:05.021Z,6.30
2023-05-25T07:47:31.930Z,5.95
2023-05-25T07:49:59.003Z,4.93
2023-05-25T07:52:25.890Z,6.00
2023-05-25T07:54:52.807Z,5.70
2023-05-25T07:57:19.731Z,5.13
2023-05-25T07:59:46.614Z,5.30
2023-05-25T08:02:13.535Z,5.82
2023-05-25T08:04:41.135Z,4.97
2023-05-25T08:07:08.329Z,5.80
2023-05-25T08:09:35.312Z,5.05
2023-05-25T08:12:24.144Z,5.18
2023-05-25T08:14:49.102Z,4.88
2023-05-25T08:17:16.033Z,4.55
2023-05-25T08:19:42.909Z,5.20
2023-05-25T08:22:09.808Z,5.00
2023-05-25T08:24:36.673Z,4.35
2023-05-25T08:27:03.676Z,5.43
2023-05-25T08:29:31.191Z,4.70
2023-05-25T08:31:58.038Z,6.55
2023-05-25T08:34:24.927Z,5.75
2023-05-25T08:36:51.796Z,4.82
2023-05-25T08:39:18.996Z,5.07
2023-05-25T08:41:46.268Z,4.00
2023-05-25T08:44:14.618Z,5.13
2023-05-25T08:46:41.855Z,5.75
2023-05-25T08:49:10.114Z,5.53
2023-05-25T08:51:39.200Z,4.72
2023-05-25T08:54:09.210Z,4.38
2023-05-25T08:56:42.185Z,5.45
2023-05-25T08:59:16.845Z,5.18
2023-05-25T09:01:46.571Z,5.57
2023-05-25T09:04:14.564Z,4.68
2023-05-25T09:06:41.608Z,5.20
2023-05-25T09:09:09.624Z,4.50
2023-05-25T09:11:39.974Z,4.13
2023-05-25T09:14:08.814Z,4.68
2023-05-25T09:16:37.830Z,5.05
2023-05-25T09:19:04.797Z,4.90
2023-05-25T09:21:31.704Z,5.63
2023-05-25T09:24:00.303Z,4.88
2023-05-25T09:26:27.602Z,4.25
2023-05-25T09:28:54.594Z,4.90
2023-05-25T09:31:24.148Z,4.07
2023-05-25T09:33:55.577Z,4.90
2023-05-25T09:36:23.398Z,4.53
2023-05-25T09:38:53.737Z,4.30
2023-05-25T09:44:01.970Z,3.78
2023-05-25T09:46:39.482Z,3.88
2023-05-25T09:49:08.985Z,4.20
2023-05-25T09:51:36.716Z,3.65
2023-05-25T09:54:04.798Z,4.43
2023-05-25T09:56:35.513Z,4.72
2023-05-25T09:59:03.045Z,4.53
2023-05-25T10:01:32.083Z,4.40
2023-05-25T10:04:04.613Z,4.28
2023-05-25T10:06:33.370Z,4.85
2023-05-25T10:09:01.629Z,4.43
2023-05-25T10:11:29.603Z,5.03
2023-05-25T10:13:58.996Z,4.55
2023-05-25T10:16:29.565Z,4.38
2023-05-25T10:19:21.937Z,3.58
2023-05-25T10:22:01.433Z,4.45
2023-05-25T10:24:38.409Z,4.55
2023-05-25T10:27:22.487Z,4.45
2023-05-25T10:29:52.754Z,3.40
2023-05-25T10:32:19.781Z,4.07
2023-05-25T10:34:48.281Z,4.68
2023-05-25T10:37:16.097Z,4.30
2023-05-25T10:39:44.404Z,4.65
2023-05-25T10:42:13.415Z,4.25
2023-05-25T10:44:42.718Z,4.13
2023-05-25T10:47:10.395Z,3.20
2023-05-25T10:49:53.621Z,4.35
2023-05-25T10:52:21.366Z,4.80
2023-05-25T10:54:48.959Z,4.22
2023-05-25T10:57:20.702Z,2.97
2023-05-25T10:59:59.981Z,4.13
2023-05-25T11:02:30.359Z,4.33
2023-05-25T11:05:31.493Z,4.45
2023-05-25T11:08:00.080Z,4.35
2023-05-25T11:10:48.458Z,3.92
2023-05-25T11:13:40.972Z,4.05
2023-05-25T11:16:17.565Z,4.43
2023-05-25T11:18:57.530Z,4.65
2023-05-25T11:21:27.499Z,4.03
2023-05-25T11:23:58.462Z,5.03
2023-05-25T11:26:29.050Z,3.25
2023-05-25T11:28:59.002Z,4.13
2023-05-25T11:31:39.048Z,3.35
2023-05-25T11:34:09.414Z,4.30
2023-05-25T11:36:36.676Z,4.70
2023-05-25T11:39:11.561Z,3.50
2023-05-25T11:41:54.679Z,3.60
2023-05-25T11:44:33.608Z,3.92
2023-05-25T11:47:09.127Z,4.60
2023-05-25T11:49:41.931Z,4.53
2023-05-25T11:52:10.357Z,3.97
2023-05-25T11:54:41.143Z,3.42
2023-05-25T11:57:28.306Z,3.65
2023-05-25T12:00:00.216Z,4.15
2023-05-25T12:02:27.270Z,3.38
2023-05-25T12:04:59.405Z,2.85
2023-05-25T12:07:28.397Z,3.10
2023-05-25T12:10:07.936Z,3.25
2023-05-25T12:12:42.339Z,3.10
2023-05-25T12:15:11.965Z,4.82
2023-05-25T12:17:42.991Z,3.63
2023-05-25T12:20:11.799Z,3.33
2023-05-25T12:22:42.678Z,2.60
2023-05-25T12:25:11.490Z,3.70
2023-05-25T12:27:40.220Z,2.90
2023-05-25T12:30:09.418Z,3.22
2023-05-25T12:32:55.574Z,3.08
2023-05-25T12:35:22.676Z,3.63
2023-05-25T12:37:49.557Z,3.13
2023-05-25T12:40:18.250Z,4.32
2023-05-25T12:42:45.606Z,4.55
2023-05-25T12:45:12.534Z,3.42
2023-05-25T12:47:39.517Z,3.50
2023-05-25T12:50:14.573Z,2.90
2023-05-25T12:52:44.210Z,3.65
2023-05-25T12:55:33.079Z,3.35
2023-05-25T12:58:02.239Z,3.33
2023-05-25T13:00:39.753Z,4.32
2023-05-25T13:03:07.998Z,4.50
2023-05-25T13:05:37.117Z,3.50
2023-05-25T13:08:05.627Z,3.80
2023-05-25T13:10:33.709Z,3.38
2023-05-25T13:13:01.194Z,3.75
2023-05-25T13:15:28.765Z,3.60
2023-05-25T13:17:58.420Z,2.78
2023-05-25T13:20:27.105Z,3.00
2023-05-25T13:22:55.902Z,4.00
2023-05-25T13:25:23.403Z,3.08
2023-05-25T13:27:52.825Z,3.22
2023-05-25T13:30:22.116Z,3.50
2023-05-25T13:32:51.434Z,4.05
2023-05-25T13:35:23.499Z,2.93
2023-05-25T13:37:51.351Z,3.38
2023-05-25T13:40:19.132Z,3.03
2023-05-25T13:42:48.671Z,2.90
2023-05-25T13:45:15.516Z,3.63
2023-05-25T13:47:44.085Z,3.45
2023-05-25T13:50:11.784Z,3.65
2023-05-25T13:52:38.739Z,3.97
2023-05-25T13:55:06.275Z,3.35
2023-05-25T13:57:33.217Z,2.60
2023-05-25T14:00:00.029Z,3.17
2023-05-25T14:02:27.115Z,2.63
2023-05-25T14:04:54.056Z,3.10
2023-05-25T14:07:20.909Z,2.80
2023-05-25T14:09:47.746Z,2.83
2023-05-25T14:12:14.628Z,2.47
2023-05-25T14:14:41.506Z,3.40
2023-05-25T14:17:08.453Z,2.42
2023-05-25T14:19:35.467Z,2.58
2023-05-25T14:24:32.198Z,2.25
2023-05-25T14:26:59.272Z,2.78
2023-05-25T14:29:26.135Z,2.95
2023-05-25T14:31:53.190Z,2.63
2023-05-25T14:34:20.213Z,3.10
2023-05-25T14:36:47.058Z,2.22
2023-05-25T14:39:16.481Z,2.60
2023-05-25T14:44:11.259Z,2.10
2023-05-25T14:46:38.202Z,1.95
2023-05-25T14:49:05.131Z,2.13
2023-05-25T14:51:31.999Z,3.20
2023-05-25T14:54:00.532Z,2.50
2023-05-25T14:56:28.414Z,2.35
2023-05-25T14:58:55.313Z,3.55
2023-05-25T15:01:25.100Z,2.67
2023-05-25T15:03:52.556Z,1.83
2023-05-25T15:06:19.737Z,3.13
2023-05-25T15:08:46.784Z,2.30
2023-05-25T15:11:13.748Z,2.83
2023-05-25T15:13:41.039Z,2.58
2023-05-25T15:16:11.891Z,2.22
2023-05-25T15:18:38.959Z,2.70
2023-05-25T15:21:06.302Z,1.63
2023-05-25T15:23:33.242Z,1.98
2023-05-25T15:26:07.819Z,2.00
2023-05-25T15:28:34.908Z,2.72
2023-05-25T15:31:03.082Z,2.47
2023-05-25T15:33:49.526Z,2.30
2023-05-25T15:36:20.195Z,1.65
2023-05-25T15:38:49.255Z,2.08
2023-05-25T15:41:17.192Z,2.03
2023-05-25T15:43:52.611Z,2.08
2023-05-25T15:46:19.781Z,1.70
2023-05-25T15:48:46.696Z,2.35
2023-05-25T15:51:13.572Z,2.10
2023-05-25T15:53:40.501Z,1.90
2023-05-25T15:56:07.404Z,1.70
2023-05-25T15:58:34.696Z,3.10
2023-05-25T16:01:02.633Z,3.08
2023-05-25T16:03:29.874Z,2.22
2023-05-25T16:05:57.212Z,2.35
2023-05-25T16:08:24.210Z,2.10
2023-05-25T16:10:51.122Z,1.77
2023-05-25T16:13:17.980Z,1.90
2023-05-25T16:15:45.069Z,2.88
2023-05-25T16:18:12.162Z,2.47
2023-05-25T16:20:39.107Z,2.40
2023-05-25T16:23:06.483Z,2.42
2023-05-25T16:25:33.395Z,1.55
2023-05-25T16:28:00.290Z,2.05
2023-05-25T16:30:27.089Z,1.77
2023-05-25T16:32:54.046Z,2.03
2023-05-25T16:35:21.149Z,2.00
2023-05-25T16:37:47.960Z,1.92
2023-05-25T16:40:14.942Z,2.08
2023-05-25T16:42:41.851Z,2.05
2023-05-25T16:45:09.107Z,1.70
2023-05-25T16:47:36.026Z,1.52
2023-05-25T16:50:03.001Z,1.73
2023-05-25T16:52:29.866Z,2.33
2023-05-25T16:54:59.036Z,2.75
2023-05-25T16:57:26.116Z,2.20
2023-05-25T16:59:53.796Z,2.65
2023-05-25T17:02:20.865Z,1.90
2023-05-25T17:04:47.754Z,1.50
2023-05-25T17:07:14.687Z,1.98
2023-05-25T17:09:41.526Z,1.58
2023-05-25T17:12:08.621Z,1.45
2023-05-25T17:14:35.816Z,2.25
2023-05-25T17:17:02.656Z,1.83
2023-05-25T17:19:29.701Z,1.73
2023-05-25T17:21:56.610Z,2.17
2023-05-25T17:24:23.426Z,2.40
2023-05-25T17:26:51.501Z,2.30
2023-05-25T17:29:18.393Z,2.30
2023-05-25T17:31:47.044Z,1.70
2023-05-25T17:34:16.166Z,2.08
2023-05-25T17:36:43.320Z,1.70
2023-05-25T17:39:12.541Z,2.08
2023-05-25T17:41:39.399Z,2.00
2023-05-25T17:44:06.479Z,1.65
2023-05-25T17:46:33.701Z,2.38
2023-05-25T17:49:01.859Z,1.48
2023-05-25T17:51:28.698Z,1.70
2023-05-25T17:53:56.302Z,2.28
2023-05-25T17:56:23.244Z,1.48
2023-05-25T17:58:50.097Z,1.92
2023-05-25T18:01:17.192Z,1.63
2023-05-25T18:03:44.281Z,1.83
2023-05-25T18:06:11.276Z,2.08
2023-05-25T18:08:38.112Z,1.85
2023-05-25T18:11:06.201Z,2.33
2023-05-25T18:13:33.021Z,2.03
2023-05-25T18:15:59.830Z,1.42
2023-05-25T18:18:26.837Z,1.50
2023-05-25T18:20:53.735Z,1.98
2023-05-25T18:23:22.163Z,1.77
2023-05-25T18:25:49.052Z,1.17
2023-05-25T18:28:16.032Z,2.45
2023-05-25T18:30:43.058Z,1.75
2023-05-25T18:33:10.734Z,1.60
2023-05-25T18:35:38.305Z,1.80
2023-05-25T18:38:06.559Z,1.80
2023-05-25T18:40:33.551Z,1.52
2023-05-25T18:43:00.405Z,1.30
2023-05-25T18:45:27.296Z,1.52
2023-05-25T18:47:54.435Z,1.40
2023-05-25T18:50:21.614Z,1.83
2023-05-25T18:52:51.114Z,1.88
2023-05-25T18:55:18.929Z,3.20
2023-05-25T18:57:45.848Z,1.58
2023-05-25T19:00:13.462Z,1.75
2023-05-25T19:02:40.913Z,1.50
2023-05-25T19:05:08.566Z,1.88
2023-05-25T19:07:44.138Z,1.58
2023-05-25T19:10:18.062Z,2.75
2023-05-25T19:12:45.033Z,1.20
2023-05-25T19:15:11.930Z,1.42
2023-05-25T19:17:38.840Z,1.30
2023-05-25T19:20:06.807Z,1.20
2023-05-25T19:22:33.786Z,1.20
2023-05-25T19:25:01.404Z,1.98
2023-05-25T19:27:28.444Z,1.15
2023-05-25T19:29:55.289Z,1.60
2023-05-25T19:32:22.234Z,1.00
2023-05-25T19:34:49.153Z,1.45
2023-05-25T19:37:16.010Z,1.73
2023-05-25T19:39:42.896Z,1.17
2023-05-25T19:42:09.792Z,1.73
2023-05-25T19:44:36.879Z,2.03
2023-05-25T19:47:03.762Z,1.00
2023-05-25T19:49:30.812Z,3.35
2023-05-25T19:51:57.675Z,1.88
2023-05-25T19:54:24.510Z,1.45
2023-05-25T19:56:52.035Z,1.20
2023-05-25T19:59:18.946Z,1.25
2023-05-25T20:01:45.930Z,2.17
2023-05-25T20:04:13.132Z,1.70
2023-05-25T20:06:40.035Z,1.75
2023-05-25T20:09:07.175Z,1.35
2023-05-25T20:11:34.040Z,1.30
2023-05-25T20:14:00.896Z,1.20
2023-05-25T20:16:28.157Z,1.80
2023-05-25T20:18:55.006Z,1.45
2023-05-25T20:21:21.950Z,1.85
2023-05-25T20:23:48.846Z,1.38
2023-05-25T20:26:15.764Z,1.20
2023-05-25T20:28:42.753Z,1.85
2023-05-25T20:31:09.726Z,2.08
2023-05-25T20:33:36.612Z,2.28
2023-05-25T20:36:03.441Z,2.08
2023-05-25T20:38:30.290Z,1.98
2023-05-25T20:40:57.180Z,3.22
2023-05-25T20:43:24.008Z,1.98
2023-05-25T20:45:50.908Z,1.90
2023-05-25T20:48:18.001Z,1.85
2023-05-25T20:50:44.857Z,2.10
2023-05-25T20:53:11.953Z,2.38
2023-05-25T20:55:38.798Z,2.28
2023-05-25T20:58:05.720Z,2.40
2023-05-25T21:00:32.538Z,3.05
2023-05-25T21:02:59.480Z,3.40
2023-05-25T21:05:27.601Z,3.08
2023-05-25T21:07:54.462Z,2.83
2023-05-25T21:10:21.301Z,2.10
2023-05-25T21:12:48.137Z,3.00
2023-05-25T21:15:14.976Z,3.25
2023-05-25T21:17:41.862Z,2.85
2023-05-25T21:20:09.122Z,3.30
2023-05-25T21:22:36.518Z,2.75
2023-05-25T21:25:04.673Z,3.40
2023-05-25T21:27:31.490Z,3.78
2023-05-25T21:29:58.345Z,4.28
2023-05-25T21:32:25.466Z,3.50
2023-05-25T21:34:53.015Z,3.80
2023-05-25T21:37:20.220Z,4.03
2023-05-25T21:39:47.109Z,4.63
2023-05-25T21:42:13.938Z,4.32
2023-05-25T21:44:40.763Z,5.03
2023-05-25T21:47:07.695Z,4.65
2023-05-25T21:49:34.652Z,5.00
2023-05-25T21:52:01.523Z,5.28
2023-05-25T21:54:28.335Z,5.28
2023-05-25T21:56:55.337Z,5.70
2023-05-25T21:59:22.268Z,5.28
2023-05-25T22:01:49.136Z,6.30
2023-05-25T22:04:16.243Z,4.90
2023-05-25T22:06:43.095Z,5.43
2023-05-25T22:09:09.933Z,6.07
2023-05-25T22:11:37.473Z,5.57
2023-05-25T22:14:04.550Z,5.82
2023-05-25T22:16:31.567Z,5.50
2023-05-25T22:18:59.046Z,5.30
2023-05-25T22:21:26.095Z,6.78
2023-05-25T22:23:52.953Z,6.30
2023-05-25T22:26:19.806Z,6.95
2023-05-25T22:28:46.632Z,5.03
2023-05-25T22:31:13.617Z,6.28
2023-05-25T22:33:40.467Z,5.82
2023-05-25T22:36:07.446Z,5.50
2023-05-25T22:38:34.256Z,5.38
2023-05-25T22:41:01.144Z,5.30
2023-05-25T22:43:28.010Z,4.72
2023-05-25T22:45:54.854Z,5.50
2023-05-25T22:48:21.874Z,4.82
2023-05-25T22:50:48.684Z,5.07
2023-05-25T22:53:15.608Z,5.53
2023-05-25T22:55:43.614Z,5.53
2023-05-25T22:58:11.385Z,5.30
2023-05-25T23:00:38.228Z,5.03
2023-05-25T23:03:05.244Z,4.90
2023-05-25T23:05:32.169Z,6.05
2023-05-25T23:07:59.527Z,5.63
2023-05-25T23:10:26.456Z,5.38
2023-05-25T23:12:54.698Z,5.78
2023-05-25T23:15:22.435Z,6.65
2023-05-25T23:17:49.395Z,5.07
2023-05-25T23:20:16.416Z,4.45
2023-05-25T23:22:43.546Z,5.75
2023-05-25T23:25:10.771Z,5.47
2023-05-25T23:27:37.933Z,4.95
2023-05-25T23:30:08.139Z,6.00
2023-05-25T23:32:36.525Z,6.18
2023-05-25T23:35:04.086Z,5.57
2023-05-25T23:37:30.938Z,5.82
2023-05-25T23:39:57.767Z,6.20
2023-05-25T23:42:26.750Z,6.38
2023-05-25T23:44:53.586Z,5.35
2023-05-25T23:47:20.449Z,6.35
2023-05-25T23:49:47.288Z,6.05
2023-05-25T23:52:14.167Z,6.22
2023-05-25T23:54:41.034Z,6.78
2023-05-25T23:57:07.866Z,6.88
2023-05-25T23:59:34.725Z,5.95
